Time;durP1;ratioP1;P1;durP2;ratioP2;P2;SDS_P1;SDS_P2;PMS_P1;PMS_P2;Temp;Humidity;BMP_temperature;BMP_pressure;BME280_temperature;BME280_humidity;BME280_pressure;Samples;Min_cycle;Max_cycle;Signal;HPM_P1;HPM_P2
2022/09/16 00:01:24;;;;;;;4.03;2.15;;;18.30;99.90;;;;;;5032102;28;20045;-75
2022/09/16 00:03:54;;;;;;;3.13;1.60;;;18.30;99.90;;;;;;5036193;28;20387;-74
2022/09/16 00:06:26;;;;;;;7.40;2.22;;;18.20;99.90;;;;;;5032568;28;20033;-75
2022/09/16 00:08:55;;;;;;;6.82;2.55;;;18.20;99.90;;;;;;5036893;28;20036;-75
2022/09/16 00:11:20;;;;;;;4.68;2.03;;;18.30;99.90;;;;;;5035981;28;20021;-75
2022/09/16 00:13:46;;;;;;;3.60;1.60;;;18.30;99.90;;;;;;5034865;28;20376;-75
2022/09/16 00:16:18;;;;;;;5.55;1.80;;;18.40;99.90;;;;;;5028496;28;20096;-74
2022/09/16 00:18:43;;;;;;;5.25;2.17;;;18.50;99.90;;;;;;5028780;28;20025;-75
2022/09/16 00:21:09;;;;;;;4.57;1.55;;;18.60;99.90;;;;;;5029053;28;20025;-75
2022/09/16 00:23:36;;;;;;;8.00;2.42;;;18.50;99.90;;;;;;5029261;28;20511;-75
2022/09/16 00:26:03;;;;;;;6.22;2.10;;;18.50;99.90;;;;;;5036830;28;20056;-75
2022/09/16 00:28:29;;;;;;;7.53;1.85;;;18.30;99.90;;;;;;5032789;28;20571;-75
2022/09/16 00:31:01;;;;;;;4.30;1.52;;;18.30;99.90;;;;;;5028361;28;20049;-76
2022/09/16 00:33:27;;;;;;;5.03;2.22;;;18.30;99.90;;;;;;5032202;28;20029;-75
2022/09/16 00:36:03;;;;;;;4.07;1.92;;;18.40;99.90;;;;;;5037944;28;20087;-75
2022/09/16 00:38:28;;;;;;;9.15;2.75;;;18.50;99.90;;;;;;5029070;28;20102;-75
2022/09/16 00:40:54;;;;;;;4.40;2.22;;;18.50;99.90;;;;;;5030575;28;20494;-75
2022/09/16 00:43:20;;;;;;;6.65;2.55;;;18.50;99.90;;;;;;5028056;28;20037;-75
2022/09/16 00:45:54;;;;;;;4.75;1.90;;;18.40;99.90;;;;;;5028483;28;20159;-75
2022/09/16 00:48:23;;;;;;;6.57;2.95;;;18.60;99.90;;;;;;5028125;28;20025;-75
2022/09/16 00:50:53;;;;;;;5.38;1.80;;;18.30;99.90;;;;;;5032120;28;20390;-75
2022/09/16 00:53:25;;;;;;;4.65;2.00;;;18.30;99.90;;;;;;5029446;28;20502;-75
2022/09/16 00:55:53;;;;;;;5.20;1.70;;;18.40;99.90;;;;;;5033314;28;20021;-75
2022/09/16 00:58:23;;;;;;;6.40;1.80;;;18.30;99.90;;;;;;5028968;28;20029;-75
2022/09/16 01:00:50;;;;;;;4.13;2.05;;;18.20;99.90;;;;;;5031770;28;20033;-75
2022/09/16 01:03:16;;;;;;;7.00;2.33;;;18.20;99.90;;;;;;5029597;28;20033;-75
2022/09/16 01:05:43;;;;;;;4.68;2.20;;;18.10;99.90;;;;;;5029775;28;20041;-75
2022/09/16 01:08:09;;;;;;;4.53;1.70;;;18.00;99.90;;;;;;5028191;28;20029;-75
2022/09/16 01:10:34;;;;;;;5.75;2.55;;;18.00;99.90;;;;;;5030773;28;20131;-75
2022/09/16 01:13:05;;;;;;;4.10;2.17;;;18.10;99.90;;;;;;5037126;28;20049;-75
2022/09/16 01:15:44;;;;;;;6.03;2.13;;;18.00;99.90;;;;;;5033170;28;20043;-75
2022/09/16 01:18:17;;;;;;;4.15;2.10;;;18.00;99.90;;;;;;5028971;28;20035;-74
2022/09/16 01:21:07;;;;;;;6.05;1.85;;;18.00;99.90;;;;;;5027888;28;20029;-75
2022/09/16 01:23:59;;;;;;;5.82;2.65;;;17.90;99.90;;;;;;5028643;28;20044;-75
2022/09/16 01:26:47;;;;;;;5.00;2.10;;;17.90;99.90;;;;;;5035840;28;20029;-74
2022/09/16 01:29:31;;;;;;;7.68;2.92;;;17.90;99.90;;;;;;5030526;28;20152;-74
2022/09/16 01:32:05;;;;;;;5.25;1.80;;;18.10;99.90;;;;;;5031564;28;20057;-74
2022/09/16 01:35:01;;;;;;;7.78;1.88;;;18.10;99.90;;;;;;5027871;28;20041;-75
2022/09/16 01:37:49;;;;;;;5.85;1.90;;;18.30;99.90;;;;;;5034984;28;20037;-75
2022/09/16 01:40:27;;;;;;;6.28;2.20;;;18.30;99.90;;;;;;5034958;28;20037;-74
2022/09/16 01:43:13;;;;;;;6.55;1.70;;;18.20;99.90;;;;;;5036462;28;20501;-75
2022/09/16 01:45:52;;;;;;;6.35;2.38;;;18.20;99.90;;;;;;5032735;28;20372;-75
2022/09/16 01:48:42;;;;;;;6.22;1.80;;;18.00;99.90;;;;;;5027290;28;20040;-74
2022/09/16 01:51:30;;;;;;;5.57;1.95;;;18.00;99.90;;;;;;5031954;28;20025;-74
2022/09/16 01:54:05;;;;;;;5.45;2.60;;;18.00;99.90;;;;;;5036658;28;20535;-75
2022/09/16 01:56:31;;;;;;;9.63;2.15;;;17.90;99.90;;;;;;5032704;28;20065;-75
2022/09/16 01:59:00;;;;;;;5.20;2.40;;;17.90;99.90;;;;;;5031403;28;20103;-75
2022/09/16 02:01:46;;;;;;;5.68;1.92;;;18.00;99.90;;;;;;5036941;28;20103;-75
2022/09/16 02:04:17;;;;;;;4.95;2.13;;;18.10;99.90;;;;;;5033895;28;20056;-74
2022/09/16 02:06:45;;;;;;;5.53;2.35;;;18.10;99.90;;;;;;5032269;28;20491;-75
2022/09/16 02:09:23;;;;;;;4.85;2.25;;;18.00;99.90;;;;;;5032268;28;20029;-75
2022/09/16 02:11:51;;;;;;;6.55;2.30;;;17.90;99.90;;;;;;5031660;28;20104;-75
2022/09/16 02:14:25;;;;;;;5.28;2.08;;;18.00;99.90;;;;;;5035410;28;20021;-75
2022/09/16 02:16:54;;;;;;;3.67;1.90;;;18.00;99.90;;;;;;5036919;28;20025;-75
2022/09/16 02:19:25;;;;;;;4.68;2.08;;;17.90;99.90;;;;;;5034737;28;20497;-75
2022/09/16 02:21:53;;;;;;;6.32;2.00;;;17.90;99.90;;;;;;5031475;28;20037;-75
2022/09/16 02:24:20;;;;;;;4.22;2.28;;;18.00;99.90;;;;;;5031335;28;20025;-75
2022/09/16 02:26:59;;;;;;;5.28;1.88;;;18.00;99.90;;;;;;5031066;28;20059;-75
2022/09/16 02:29:28;;;;;;;5.30;2.20;;;17.90;99.90;;;;;;5030851;28;20159;-75
2022/09/16 02:31:57;;;;;;;4.57;2.00;;;17.90;99.90;;;;;;5038370;28;20361;-75
2022/09/16 02:34:31;;;;;;;6.60;2.40;;;18.00;99.90;;;;;;5031574;28;20379;-74
2022/09/16 02:37:05;;;;;;;4.82;1.83;;;18.00;99.90;;;;;;5030911;28;20472;-75
2022/09/16 02:39:36;;;;;;;5.43;2.22;;;17.80;99.90;;;;;;5031766;28;20028;-75
2022/09/16 02:42:02;;;;;;;4.47;1.80;;;17.60;99.90;;;;;;5031010;28;20038;-76
2022/09/16 02:44:28;;;;;;;8.05;2.08;;;17.70;99.90;;;;;;5032368;28;20775;-75
2022/09/16 02:47:10;;;;;;;5.82;1.83;;;17.60;99.90;;;;;;5030032;28;20037;-74
2022/09/16 02:49:51;;;;;;;7.38;2.22;;;17.50;99.90;;;;;;5029928;28;20029;-75
2022/09/16 02:52:22;;;;;;;6.20;2.20;;;17.50;99.90;;;;;;5030048;28;20111;-75
2022/09/16 02:54:55;;;;;;;5.40;2.00;;;17.60;99.90;;;;;;5031173;28;20024;-75
2022/09/16 02:57:21;;;;;;;5.32;2.22;;;17.90;99.90;;;;;;5033799;28;20380;-75
2022/09/16 02:59:48;;;;;;;4.03;2.33;;;17.90;99.90;;;;;;5038233;28;20038;-75
2022/09/16 03:02:13;;;;;;;4.03;2.10;;;17.80;99.90;;;;;;5031869;28;20507;-74
2022/09/16 03:04:39;;;;;;;7.78;2.50;;;17.80;99.90;;;;;;5026180;28;20098;-74
2022/09/16 03:07:07;;;;;;;4.65;2.28;;;17.90;99.90;;;;;;5028342;28;20036;-74
2022/09/16 03:09:35;;;;;;;4.38;2.25;;;17.90;99.90;;;;;;5031447;28;20024;-74
2022/09/16 03:12:31;;;;;;;7.32;2.33;;;17.90;99.90;;;;;;5024990;28;20044;-74
2022/09/16 03:14:57;;;;;;;5.63;2.25;;;17.80;99.90;;;;;;5028987;28;20029;-74
2022/09/16 03:17:31;;;;;;;3.28;2.15;;;17.70;99.90;;;;;;5026193;28;20029;-74
2022/09/16 03:20:24;;;;;;;4.45;2.20;;;17.90;99.90;;;;;;5022810;28;20057;-74
2022/09/16 03:23:08;;;;;;;5.30;1.92;;;17.90;99.90;;;;;;5023025;28;20115;-73
2022/09/16 03:26:20;;;;;;;3.40;1.58;;;17.90;99.90;;;;;;5032917;28;20364;-74
2022/09/16 03:28:48;;;;;;;6.30;2.13;;;17.90;99.90;;;;;;5027821;28;20037;-75
2022/09/16 03:31:24;;;;;;;5.53;2.20;;;17.90;99.90;;;;;;5030060;28;20029;-74
2022/09/16 03:33:56;;;;;;;4.03;1.92;;;17.90;99.90;;;;;;5031978;28;20068;-74
2022/09/16 03:36:29;;;;;;;5.53;1.77;;;17.90;99.90;;;;;;5024293;28;20030;-74
2022/09/16 03:38:57;;;;;;;5.15;1.88;;;18.00;99.90;;;;;;5027421;28;20033;-74
2022/09/16 03:41:23;;;;;;;6.20;2.20;;;17.90;99.90;;;;;;5025325;28;20029;-74
2022/09/16 03:43:57;;;;;;;4.10;2.22;;;18.00;99.90;;;;;;5022577;28;20117;-74
2022/09/16 03:46:25;;;;;;;8.38;2.20;;;17.90;99.90;;;;;;5021774;28;20021;-74
2022/09/16 03:48:51;;;;;;;6.93;2.10;;;18.00;99.90;;;;;;5025979;28;20083;-74
2022/09/16 03:51:17;;;;;;;5.38;1.90;;;18.00;99.90;;;;;;5024251;28;20053;-73
2022/09/16 03:53:42;;;;;;;3.10;1.83;;;18.10;99.90;;;;;;5026679;28;20026;-74
2022/09/16 03:56:08;;;;;;;5.38;2.60;;;18.10;99.90;;;;;;5033143;28;20036;-75
2022/09/16 03:58:34;;;;;;;9.55;2.40;;;17.90;99.90;;;;;;5023697;28;20021;-74
2022/09/16 04:00:59;;;;;;;5.07;2.03;;;17.80;99.90;;;;;;5022416;28;20111;-73
2022/09/16 04:03:25;;;;;;;5.85;2.10;;;17.90;99.90;;;;;;5024270;28;20139;-73
2022/09/16 04:05:52;;;;;;;9.55;2.67;;;17.90;99.90;;;;;;5025309;28;20057;-73
2022/09/16 04:08:18;;;;;;;4.47;2.33;;;17.90;99.90;;;;;;5020948;28;20064;-74
2022/09/16 04:10:53;;;;;;;7.95;2.40;;;17.90;99.90;;;;;;5026399;28;20060;-74
2022/09/16 04:13:19;;;;;;;3.85;1.77;;;17.70;99.90;;;;;;5021872;28;20053;-74
2022/09/16 04:15:45;;;;;;;4.07;2.00;;;17.70;99.90;;;;;;5028949;28;20036;-74
2022/09/16 04:18:10;;;;;;;7.05;2.40;;;17.70;99.90;;;;;;5021177;28;20069;-73
2022/09/16 04:20:36;;;;;;;6.03;2.40;;;17.70;99.90;;;;;;5021643;28;20029;-74
2022/09/16 04:23:01;;;;;;;9.20;2.20;;;17.70;99.90;;;;;;5021571;28;20068;-74
2022/09/16 04:25:27;;;;;;;7.55;3.10;;;17.70;99.90;;;;;;5023379;28;20035;-74
2022/09/16 04:27:53;;;;;;;9.90;2.55;;;17.60;99.90;;;;;;5026332;28;20034;-73
2022/09/16 04:30:19;;;;;;;4.60;2.28;;;17.70;99.90;;;;;;5022797;28;20025;-74
2022/09/16 04:32:45;;;;;;;4.82;2.70;;;17.70;99.90;;;;;;5022367;28;20095;-74
2022/09/16 04:35:10;;;;;;;5.55;2.22;;;17.60;99.90;;;;;;5021329;28;20888;-74
2022/09/16 04:37:36;;;;;;;5.35;1.70;;;17.50;99.90;;;;;;5022299;28;20028;-74
2022/09/16 04:40:02;;;;;;;6.93;2.33;;;17.60;99.90;;;;;;5020807;28;20029;-73
2022/09/16 04:42:28;;;;;;;5.88;2.17;;;17.60;99.90;;;;;;5023524;28;20459;-74
2022/09/16 04:44:53;;;;;;;5.28;2.20;;;17.60;99.90;;;;;;5021542;28;20037;-73
2022/09/16 04:47:19;;;;;;;4.25;2.38;;;17.60;99.90;;;;;;5025003;28;20026;-74
2022/09/16 04:49:45;;;;;;;7.03;2.63;;;17.70;99.90;;;;;;5022257;28;20030;-74
2022/09/16 04:52:11;;;;;;;6.60;2.50;;;17.70;99.90;;;;;;5020369;28;20029;-73
2022/09/16 04:54:36;;;;;;;5.50;2.00;;;17.60;99.90;;;;;;5020808;28;20490;-74
2022/09/16 04:57:02;;;;;;;4.20;2.00;;;17.60;99.90;;;;;;5021927;28;20029;-74
2022/09/16 04:59:28;;;;;;;6.05;2.22;;;17.60;99.90;;;;;;5020671;28;20029;-73
2022/09/16 05:01:53;;;;;;;5.53;2.47;;;17.60;99.90;;;;;;5020585;28;20034;-74
2022/09/16 05:04:19;;;;;;;4.28;1.95;;;17.60;99.90;;;;;;5021452;28;20036;-74
2022/09/16 05:06:45;;;;;;;5.45;2.33;;;17.80;99.90;;;;;;5022769;28;21928;-73
2022/09/16 05:09:12;;;;;;;4.03;2.33;;;17.80;99.90;;;;;;5028720;28;20075;-74
2022/09/16 05:11:39;;;;;;;7.65;2.50;;;17.90;99.90;;;;;;5021320;28;20013;-74
2022/09/16 05:14:09;;;;;;;4.97;1.88;;;17.90;99.90;;;;;;5017876;28;20041;-73
2022/09/16 05:16:34;;;;;;;6.90;2.25;;;17.70;99.90;;;;;;5021599;28;20033;-73
2022/09/16 05:19:03;;;;;;;5.05;2.33;;;17.50;99.90;;;;;;5023239;28;20040;-73
2022/09/16 05:21:30;;;;;;;4.45;2.08;;;17.50;99.90;;;;;;5023911;28;20729;-73
2022/09/16 05:24:00;;;;;;;8.27;2.38;;;17.40;99.90;;;;;;5021251;28;20105;-73
2022/09/16 05:26:28;;;;;;;6.90;2.20;;;17.50;99.90;;;;;;5033806;28;20101;-72
2022/09/16 05:28:54;;;;;;;4.43;2.10;;;17.70;99.90;;;;;;5036900;28;20091;-73
2022/09/16 05:31:27;;;;;;;7.03;1.95;;;17.70;99.90;;;;;;5027374;28;20040;-73
2022/09/16 05:33:56;;;;;;;5.25;2.22;;;17.50;99.90;;;;;;5025352;28;20034;-72
2022/09/16 05:36:22;;;;;;;5.55;2.58;;;17.40;99.90;;;;;;5028388;28;20068;-72
2022/09/16 05:38:49;;;;;;;6.63;2.15;;;17.40;99.90;;;;;;5043539;28;20040;-72
2022/09/16 05:41:14;;;;;;;9.10;2.50;;;17.40;99.90;;;;;;5036271;28;20597;-72
2022/09/16 05:43:40;;;;;;;5.40;2.15;;;17.50;99.90;;;;;;5034847;28;20051;-72
2022/09/16 05:46:06;;;;;;;6.50;2.10;;;17.50;99.90;;;;;;5038577;28;20125;-72
2022/09/16 05:48:33;;;;;;;4.95;1.83;;;17.50;99.90;;;;;;5049389;28;20033;-72
2022/09/16 05:51:02;;;;;;;3.75;1.75;;;17.70;99.90;;;;;;5044401;28;20036;-72
2022/09/16 05:53:29;;;;;;;5.40;2.05;;;17.80;99.90;;;;;;5036227;28;20052;-72
2022/09/16 05:55:58;;;;;;;4.35;2.20;;;17.80;99.90;;;;;;5040508;28;20029;-72
2022/09/16 05:58:25;;;;;;;4.70;1.70;;;17.60;99.90;;;;;;5040171;28;20356;-72
2022/09/16 06:00:57;;;;;;;6.82;1.95;;;17.90;99.90;;;;;;5041016;28;20593;-71
2022/09/16 06:03:22;;;;;;;4.47;2.17;;;17.80;99.90;;;;;;5037850;28;20542;-71
2022/09/16 06:05:48;;;;;;;3.58;1.83;;;17.70;99.90;;;;;;5035993;28;20162;-72
2022/09/16 06:08:14;;;;;;;4.30;2.72;;;17.70;99.90;;;;;;5037072;28;20036;-72
2022/09/16 06:10:40;;;;;;;7.88;2.25;;;17.60;99.90;;;;;;5033293;28;20070;-72
2022/09/16 06:13:06;;;;;;;3.72;1.88;;;17.70;99.90;;;;;;5030597;28;20045;-72
2022/09/16 06:15:33;;;;;;;4.18;2.50;;;17.80;99.90;;;;;;5034919;28;20124;-71
2022/09/16 06:17:58;;;;;;;5.43;2.10;;;17.60;99.90;;;;;;5040036;28;20025;-72
2022/09/16 06:20:24;;;;;;;7.10;2.42;;;17.60;99.90;;;;;;5036879;28;20098;-72
2022/09/16 06:22:50;;;;;;;4.78;2.08;;;17.60;99.90;;;;;;5047906;28;20033;-72
2022/09/16 06:25:15;;;;;;;4.55;2.45;;;17.70;99.90;;;;;;5030771;28;20380;-72
2022/09/16 06:27:41;;;;;;;8.00;2.20;;;17.60;99.90;;;;;;5030890;28;20026;-72
2022/09/16 06:30:07;;;;;;;5.55;2.83;;;17.60;99.90;;;;;;5031344;28;20051;-71
2022/09/16 06:32:33;;;;;;;7.00;2.50;;;17.60;99.90;;;;;;5031017;28;20025;-72
2022/09/16 06:34:58;;;;;;;10.68;2.33;;;17.70;99.90;;;;;;5033931;28;20099;-72
2022/09/16 06:37:25;;;;;;;7.78;2.58;;;17.90;99.90;;;;;;5048310;28;20029;-72
2022/09/16 06:39:51;;;;;;;4.40;2.40;;;18.20;99.90;;;;;;5043823;28;20033;-72
2022/09/16 06:42:16;;;;;;;4.82;2.50;;;18.20;99.90;;;;;;5027757;28;20492;-72
2022/09/16 06:44:42;;;;;;;5.32;2.53;;;18.30;99.90;;;;;;5043866;28;20037;-72
2022/09/16 06:47:08;;;;;;;4.88;2.40;;;18.30;99.90;;;;;;5047638;28;20375;-72
2022/09/16 06:49:33;;;;;;;9.10;3.13;;;18.40;99.90;;;;;;5047767;28;20451;-72
2022/09/16 06:51:59;;;;;;;5.30;2.75;;;18.40;99.90;;;;;;5047643;28;20064;-71
2022/09/16 06:54:25;;;;;;;6.28;3.03;;;18.30;99.90;;;;;;5047519;28;20104;-71
2022/09/16 06:56:50;;;;;;;9.50;3.88;;;18.30;99.90;;;;;;5045609;28;20029;-72
2022/09/16 06:59:16;;;;;;;6.30;2.63;;;18.20;99.90;;;;;;5027302;28;20044;-72
2022/09/16 07:01:42;;;;;;;7.28;3.35;;;18.30;99.90;;;;;;5041450;28;20090;-72
2022/09/16 07:04:09;;;;;;;5.18;2.92;;;18.40;99.90;;;;;;5047642;28;20036;-72
2022/09/16 07:06:36;;;;;;;9.50;3.25;;;18.40;99.90;;;;;;5046932;28;20060;-72
2022/09/16 07:09:02;;;;;;;10.48;3.40;;;18.40;99.90;;;;;;5046390;28;20024;-72
2022/09/16 07:11:27;;;;;;;5.82;3.45;;;18.50;99.90;;;;;;5046383;28;20071;-72
2022/09/16 07:13:53;;;;;;;5.50;2.53;;;18.70;99.90;;;;;;5044939;28;20083;-72
2022/09/16 07:16:24;;;;;;;5.53;2.60;;;18.80;99.90;;;;;;5027305;28;20037;-72
2022/09/16 07:18:54;;;;;;;7.15;2.63;;;18.90;99.90;;;;;;5035940;28;20092;-72
2022/09/16 07:21:23;;;;;;;6.47;2.55;;;19.00;99.90;;;;;;5046502;28;20412;-72
2022/09/16 07:23:49;;;;;;;5.68;2.28;;;19.00;99.90;;;;;;5031919;28;20383;-72
2022/09/16 07:26:20;;;;;;;7.95;2.95;;;19.00;99.90;;;;;;5027527;28;20041;-72
2022/09/16 07:28:48;;;;;;;5.05;2.30;;;19.00;99.90;;;;;;5026700;28;20109;-72
2022/09/16 07:31:17;;;;;;;5.55;2.10;;;19.00;99.90;;;;;;5026190;28;20498;-72
2022/09/16 07:33:46;;;;;;;5.82;2.25;;;18.90;99.90;;;;;;5026888;28;20111;-72
2022/09/16 07:36:17;;;;;;;4.55;2.15;;;19.00;99.90;;;;;;5027025;28;20367;-72
2022/09/16 07:38:43;;;;;;;9.02;2.38;;;19.00;99.90;;;;;;5026763;28;20083;-71
2022/09/16 07:41:17;;;;;;;5.45;2.88;;;19.10;99.90;;;;;;5026405;28;20479;-72
2022/09/16 07:43:44;;;;;;;6.75;2.35;;;19.10;99.90;;;;;;5028571;28;20037;-72
2022/09/16 07:46:12;;;;;;;6.43;2.00;;;19.30;99.90;;;;;;5044358;28;20025;-72
2022/09/16 07:48:38;;;;;;;5.20;2.78;;;19.30;99.90;;;;;;5035929;28;20033;-72
2022/09/16 07:51:07;;;;;;;5.25;2.50;;;19.40;99.90;;;;;;5046532;28;20021;-72
2022/09/16 07:53:33;;;;;;;5.95;2.20;;;19.50;99.90;;;;;;5046685;28;20615;-72
2022/09/16 07:56:11;;;;;;;4.07;1.88;;;19.60;99.90;;;;;;5046513;28;20112;-72
2022/09/16 07:58:38;;;;;;;6.13;2.78;;;19.60;99.90;;;;;;5045901;28;20033;-72
2022/09/16 08:01:04;;;;;;;7.90;2.70;;;19.50;99.90;;;;;;5045760;28;20106;-72
2022/09/16 08:03:31;;;;;;;6.63;2.80;;;19.40;99.90;;;;;;5036427;28;20834;-72
2022/09/16 08:06:11;;;;;;;6.47;3.10;;;19.50;99.90;;;;;;5034525;28;20037;-72
2022/09/16 08:08:37;;;;;;;7.28;2.83;;;19.60;99.90;;;;;;5025800;28;20029;-72
2022/09/16 08:11:03;;;;;;;6.22;2.20;;;19.70;99.90;;;;;;5026595;28;20048;-72
2022/09/16 08:13:31;;;;;;;5.78;1.85;;;19.70;99.90;;;;;;5032188;28;20049;-72
2022/09/16 08:16:04;;;;;;;5.85;2.67;;;19.70;99.90;;;;;;5025746;28;20021;-73
2022/09/16 08:18:30;;;;;;;4.82;2.40;;;19.70;99.90;;;;;;5024351;28;20099;-73
2022/09/16 08:20:56;;;;;;;7.72;2.33;;;19.70;99.90;;;;;;5041839;28;20044;-73
2022/09/16 08:23:22;;;;;;;3.72;1.95;;;19.90;99.90;;;;;;5030333;28;20033;-73
2022/09/16 08:25:59;;;;;;;6.57;2.45;;;20.20;99.90;;;;;;5025811;28;20492;-73
2022/09/16 08:28:26;;;;;;;4.80;2.10;;;20.10;99.90;;;;;;5038599;28;20071;-73
2022/09/16 08:30:51;;;;;;;4.78;1.67;;;20.20;99.90;;;;;;5045202;28;20431;-72
2022/09/16 08:33:20;;;;;;;3.60;1.70;;;20.30;99.90;;;;;;5028440;28;20557;-74
2022/09/16 08:35:46;;;;;;;4.55;2.00;;;20.30;99.90;;;;;;5045010;28;20158;-74
2022/09/16 08:38:12;;;;;;;4.50;1.80;;;20.40;99.90;;;;;;5043596;28;20044;-74
2022/09/16 08:40:43;;;;;;;4.05;1.70;;;20.40;99.90;;;;;;5032073;28;20029;-74
2022/09/16 08:43:14;;;;;;;4.65;2.20;;;20.70;99.90;;;;;;5046590;28;20059;-74
2022/09/16 08:45:56;;;;;;;5.20;1.88;;;20.80;99.90;;;;;;5044586;28;20472;-75
2022/09/16 08:48:47;;;;;;;5.82;2.00;;;20.70;99.90;;;;;;5029497;28;20036;-74
2022/09/16 08:51:17;;;;;;;6.75;1.90;;;20.70;99.90;;;;;;5036560;28;20033;-75
2022/09/16 08:53:58;;;;;;;6.57;2.25;;;20.70;99.90;;;;;;5043798;28;20029;-74
2022/09/16 08:56:28;;;;;;;8.98;2.13;;;20.80;99.90;;;;;;5041111;28;20040;-74
2022/09/16 08:58:56;;;;;;;5.97;2.45;;;20.80;99.90;;;;;;5041124;28;20031;-74
2022/09/16 09:01:33;;;;;;;4.22;1.85;;;20.80;99.90;;;;;;5035268;28;20694;-74
2022/09/16 09:04:00;;;;;;;4.63;2.00;;;20.90;99.90;;;;;;5032373;28;20020;-74
2022/09/16 09:06:56;;;;;;;4.72;2.13;;;21.50;99.90;;;;;;5036601;28;20102;-74
2022/09/16 09:09:45;;;;;;;7.03;1.63;;;24.90;99.30;;;;;;5038367;28;20124;-74
2022/09/16 09:12:19;;;;;;;7.95;1.85;;;26.70;95.90;;;;;;5023123;28;20051;-75
2022/09/16 09:15:03;;;;;;;5.28;2.22;;;27.30;94.20;;;;;;5024130;28;20037;-75
2022/09/16 09:17:31;;;;;;;6.87;2.50;;;28.20;94.30;;;;;;5032300;28;20060;-74
2022/09/16 09:20:11;;;;;;;5.72;1.80;;;28.20;94.10;;;;;;5034239;28;20268;-75
2022/09/16 09:23:15;;;;;;;8.50;2.15;;;27.30;93.60;;;;;;5038516;28;20047;-75
2022/09/16 09:26:22;;;;;;;4.70;1.58;;;28.10;92.90;;;;;;5024365;28;20048;-75
2022/09/16 09:29:15;;;;;;;6.53;1.73;;;28.40;93.60;;;;;;5024787;28;20045;-73
2022/09/16 09:32:04;;;;;;;4.95;1.85;;;28.40;93.20;;;;;;5024201;28;20518;-74
2022/09/16 09:34:42;;;;;;;9.40;2.17;;;29.30;92.50;;;;;;5024983;28;20076;-74
2022/09/16 09:37:14;;;;;;;3.70;1.63;;;29.50;92.80;;;;;;5024998;28;20029;-74
2022/09/16 09:39:39;;;;;;;4.43;1.50;;;29.20;92.20;;;;;;5031879;28;20066;-74
2022/09/16 09:42:20;;;;;;;4.13;2.17;;;28.40;92.70;;;;;;5044707;28;20033;-74
2022/09/16 09:45:29;;;;;;;5.10;1.80;;;27.50;92.30;;;;;;5058930;28;20094;-73
2022/09/16 09:47:58;;;;;;;3.67;1.50;;;25.70;93.20;;;;;;5041050;28;20052;-74
2022/09/16 09:50:39;;;;;;;4.30;1.90;;;24.20;94.80;;;;;;5024727;28;20128;-74
2022/09/16 09:53:12;;;;;;;4.03;1.52;;;23.40;96.10;;;;;;5027096;28;20069;-74
2022/09/16 09:55:40;;;;;;;7.72;1.67;;;23.00;97.20;;;;;;5031344;28;20082;-74
2022/09/16 09:58:18;;;;;;;7.30;1.88;;;22.80;97.20;;;;;;5040942;28;20025;-74
2022/09/16 10:00:44;;;;;;;4.35;1.95;;;23.00;97.80;;;;;;5044446;28;20389;-74
2022/09/16 10:03:15;;;;;;;5.28;1.75;;;23.50;97.90;;;;;;5044790;28;20124;-74
2022/09/16 10:05:42;;;;;;;3.75;1.77;;;23.60;96.90;;;;;;5027388;28;20612;-74
2022/09/16 10:08:23;;;;;;;3.97;1.77;;;23.40;96.20;;;;;;5024189;28;20025;-74
2022/09/16 10:10:52;;;;;;;3.00;1.70;;;23.20;96.60;;;;;;5027831;28;20037;-74
2022/09/16 10:13:19;;;;;;;4.80;1.88;;;23.20;97.10;;;;;;5035257;28;20038;-74
2022/09/16 10:15:46;;;;;;;3.33;1.20;;;23.10;96.20;;;;;;5037698;28;20044;-74
2022/09/16 10:18:32;;;;;;;4.25;1.73;;;23.40;96.40;;;;;;5039798;28;20066;-74
2022/09/16 10:21:13;;;;;;;3.08;1.77;;;23.70;96.70;;;;;;5038013;28;20086;-74
2022/09/16 10:23:39;;;;;;;5.32;1.88;;;23.70;95.80;;;;;;5038194;28;20114;-74
2022/09/16 10:26:17;;;;;;;5.47;1.65;;;23.70;95.80;;;;;;5039057;28;20447;-74
2022/09/16 10:29:21;;;;;;;2.35;1.17;;;24.00;95.40;;;;;;5044292;28;20032;-74
2022/09/16 10:31:47;;;;;;;2.70;1.20;;;23.70;95.50;;;;;;5034879;28;20040;-74
2022/09/16 10:34:33;;;;;;;2.45;1.35;;;23.50;96.20;;;;;;5030109;28;20037;-74
2022/09/16 10:37:19;;;;;;;2.95;1.50;;;23.60;95.90;;;;;;5027476;28;20029;-74
2022/09/16 10:39:52;;;;;;;4.88;1.80;;;23.80;95.30;;;;;;5042584;28;20025;-74
2022/09/16 10:42:21;;;;;;;4.30;1.80;;;24.00;95.50;;;;;;5047840;28;20041;-74
2022/09/16 10:44:50;;;;;;;4.68;1.60;;;24.10;95.50;;;;;;5047260;28;20048;-74
2022/09/16 10:47:29;;;;;;;5.00;1.88;;;24.10;96.20;;;;;;5047628;28;20029;-74
2022/09/16 10:50:00;;;;;;;3.30;1.63;;;24.40;96.10;;;;;;5045555;28;20060;-74
2022/09/16 10:52:39;;;;;;;3.15;1.50;;;24.30;95.90;;;;;;5042802;28;20041;-74
2022/09/16 10:55:43;;;;;;;4.25;1.50;;;23.90;95.10;;;;;;5034556;28;20033;-74
2022/09/16 10:58:16;;;;;;;5.55;1.45;;;24.10;95.20;;;;;;5023553;28;20033;-74
2022/09/16 11:00:58;;;;;;;8.93;1.63;;;24.40;96.50;;;;;;5036352;28;20092;-74
2022/09/16 11:03:48;;;;;;;3.63;1.40;;;24.60;96.20;;;;;;5042728;28;20124;-74
2022/09/16 11:06:45;;;;;;;3.75;1.25;;;24.90;95.80;;;;;;5037098;28;20073;-74
2022/09/16 11:09:39;;;;;;;3.65;1.63;;;24.90;94.80;;;;;;5034564;28;20033;-74
2022/09/16 11:12:35;;;;;;;3.45;1.60;;;25.00;95.60;;;;;;5031666;28;20048;-74
2022/09/16 11:15:30;;;;;;;6.63;1.50;;;24.60;94.50;;;;;;5033718;28;20672;-74
2022/09/16 11:18:35;;;;;;;4.05;1.60;;;24.70;94.60;;;;;;5032370;28;20551;-74
2022/09/16 11:21:31;;;;;;;4.05;1.45;;;25.00;95.50;;;;;;5032768;28;20044;-74
2022/09/16 11:24:25;;;;;;;3.28;1.50;;;25.30;94.50;;;;;;5029907;28;20111;-74
2022/09/16 11:27:03;;;;;;;;;;;25.10;93.90;;;;;;5039106;28;20029;-74
2022/09/16 11:29:42;;;;;;;4.22;1.30;;;25.30;94.00;;;;;;5030012;28;20261;-74
2022/09/16 11:32:35;;;;;;;3.35;1.30;;;25.20;93.50;;;;;;5038547;28;20588;-74
2022/09/16 11:35:29;;;;;;;3.80;1.52;;;25.40;94.10;;;;;;5041680;28;20104;-74
2022/09/16 11:38:07;;;;;;;2.85;1.20;;;25.20;94.00;;;;;;5034333;28;20067;-74
2022/09/16 11:40:46;;;;;;;5.00;1.60;;;25.60;94.30;;;;;;5037920;28;20032;-74
2022/09/16 11:43:32;;;;;;;2.97;1.35;;;25.50;94.40;;;;;;5046769;28;20170;-74
2022/09/16 11:45:58;;;;;;;4.75;1.58;;;25.30;93.90;;;;;;5043184;28;20025;-74
2022/09/16 11:49:01;;;;;;;3.47;1.45;;;25.50;94.40;;;;;;5046225;28;20032;-74
2022/09/16 11:51:54;;;;;;;2.92;1.15;;;25.80;94.00;;;;;;5046299;28;20029;-74
2022/09/16 11:54:44;;;;;;;2.50;0.98;;;25.70;93.70;;;;;;5046260;28;20065;-74
2022/09/16 11:57:15;;;;;;;6.85;2.05;;;25.90;95.20;;;;;;5040624;28;20494;-74
2022/09/16 11:59:49;;;;;;;4.28;1.70;;;25.90;94.80;;;;;;5035176;28;20104;-74
2022/09/16 12:02:36;;;;;;;4.38;1.60;;;26.10;94.40;;;;;;5032605;28;20037;-75
2022/09/16 12:05:11;;;;;;;6.15;1.42;;;26.00;93.80;;;;;;5034923;28;20030;-74
2022/09/16 12:07:44;;;;;;;6.93;1.85;;;25.90;94.30;;;;;;5035086;28;20037;-74
2022/09/16 12:10:19;;;;;;;4.55;1.70;;;26.30;95.30;;;;;;5031486;28;20040;-73
2022/09/16 12:12:51;;;;;;;4.32;1.52;;;26.60;94.50;;;;;;5024953;28;20050;-74
2022/09/16 12:15:19;;;;;;;6.00;1.70;;;26.60;93.80;;;;;;5026105;28;20047;-73
2022/09/16 12:17:55;;;;;;;4.38;1.65;;;26.40;93.90;;;;;;5044745;28;20063;-74
2022/09/16 12:20:28;;;;;;;7.32;1.75;;;26.50;93.70;;;;;;5035706;28;20091;-73
2022/09/16 12:23:04;;;;;;;4.15;1.98;;;26.70;94.60;;;;;;5025473;28;20052;-74
2022/09/16 12:26:01;;;;;;;2.63;1.35;;;26.80;94.30;;;;;;5035444;28;20036;-74
2022/09/16 12:28:41;;;;;;;9.40;2.45;;;26.50;94.10;;;;;;5030630;28;20112;-74
2022/09/16 12:31:14;;;;;;;7.20;2.17;;;26.80;94.40;;;;;;5023183;28;20033;-73
2022/09/16 12:33:49;;;;;;;4.65;1.65;;;27.00;95.10;;;;;;5042327;28;20030;-74
2022/09/16 12:36:21;;;;;;;3.80;1.67;;;27.20;94.40;;;;;;5029608;28;20044;-74
2022/09/16 12:38:46;;;;;;;6.50;1.90;;;27.60;94.70;;;;;;5042657;28;20047;-75
2022/09/16 12:41:21;;;;;;;6.75;1.95;;;27.40;94.10;;;;;;5041792;28;20029;-75
2022/09/16 12:44:20;;;;;;;6.28;2.05;;;27.60;95.50;;;;;;5025218;28;20038;-75
2022/09/16 12:47:16;;;;;;;9.23;2.33;;;28.00;94.60;;;;;;5044160;28;20025;-75
2022/09/16 12:49:45;;;;;;;7.80;2.22;;;28.40;94.40;;;;;;5024576;28;20037;-74
2022/09/16 12:52:29;;;;;;;5.57;1.77;;;28.20;94.10;;;;;;5042935;28;20101;-75
2022/09/16 12:55:43;;;;;;;7.35;1.92;;;28.20;94.40;;;;;;5043247;28;20376;-77
2022/09/16 12:58:20;;;;;;;3.67;1.55;;;27.40;94.50;;;;;;5042979;28;20075;-77
2022/09/16 13:01:23;;;;;;;6.63;2.00;;;26.80;95.10;;;;;;5042781;28;20033;-77
2022/09/16 13:04:13;;;;;;;5.75;2.25;;;26.60;95.20;;;;;;5045303;28;20095;-76
2022/09/16 13:06:57;;;;;;;4.88;1.88;;;26.40;95.10;;;;;;5043809;28;20605;-76
2022/09/16 13:09:32;;;;;;;4.97;2.15;;;26.40;95.30;;;;;;5025143;28;20061;-76
2022/09/16 13:12:22;;;;;;;7.47;2.65;;;26.50;95.20;;;;;;5035379;28;20052;-78
2022/09/16 13:14:54;;;;;;;8.00;2.17;;;26.30;95.50;;;;;;5045049;28;20437;-77
2022/09/16 13:17:35;;;;;;;8.43;2.15;;;26.10;96.20;;;;;;5044965;28;20024;-76
2022/09/16 13:20:21;;;;;;;7.15;1.85;;;26.00;97.00;;;;;;5045050;28;20056;-77